Petersburg, Illinois
Current Conditions -  °F | °C
As of 10:52 PM on Monday 22 Dec 2014 (Local Time) from KSPI Reporting Station
Light Rain Light Rain  
Wind Chill: 44°   Ceiling: 600
Heat Index: 49°   Visibility: 10mi
Dew Point: 48°   Wind: 12mph
Humidity: 97%   Direction: 180°S
Pressure: 29.52"   Gusts: NA
Location:  40.01°N, 89.85°W
Report Text: KSPI 230452Z AUTO 18010KT 10SM -RA BKN006 BKN012 OVC016 09/09 A2952 RMK AO2 SLP999 P0007 T00940089
Loading
Personal Weather Stations






























Interactive Weather Map New forecast layout! Learn more

10-Day Weather Forecast

Advertisements
Track Severe Weather on mobile